sensor_id;sensor_type;location;lat;lon;timestamp;P1;durP1;ratioP1;P2;durP2;ratioP2
56242;SDS011;42155;53.096;23.226;2023-03-01T00:00:29;18.35;;;6.30;;
56242;SDS011;42155;53.096;23.226;2023-03-01T00:02:29;16.50;;;6.63;;
56242;SDS011;42155;53.096;23.226;2023-03-01T00:04:30;19.52;;;6.70;;
56242;SDS011;42155;53.096;23.226;2023-03-01T00:06:30;14.70;;;6.47;;
56242;SDS011;42155;53.096;23.226;2023-03-01T00:08:31;19.10;;;7.40;;
56242;SDS011;42155;53.096;23.226;2023-03-01T00:10:33;20.48;;;7.72;;
56242;SDS011;42155;53.096;23.226;2023-03-01T00:12:33;21.15;;;8.43;;
56242;SDS011;42155;53.096;23.226;2023-03-01T00:14:33;21.10;;;8.45;;
56242;SDS011;42155;53.096;23.226;2023-03-01T00:16:35;24.55;;;9.23;;
56242;SDS011;42155;53.096;23.226;2023-03-01T00:18:38;24.55;;;8.98;;
56242;SDS011;42155;53.096;23.226;2023-03-01T00:20:38;21.92;;;9.20;;
56242;SDS011;42155;53.096;23.226;2023-03-01T00:22:39;24.80;;;8.88;;
56242;SDS011;42155;53.096;23.226;2023-03-01T00:24:39;20.17;;;8.93;;
56242;SDS011;42155;53.096;23.226;2023-03-01T00:26:40;21.80;;;8.68;;
56242;SDS011;42155;53.096;23.226;2023-03-01T00:28:40;14.00;;;7.00;;
56242;SDS011;42155;53.096;23.226;2023-03-01T00:30:41;18.77;;;7.55;;
56242;SDS011;42155;53.096;23.226;2023-03-01T00:32:42;17.52;;;7.70;;
56242;SDS011;42155;53.096;23.226;2023-03-01T00:34:42;19.30;;;7.47;;
56242;SDS011;42155;53.096;23.226;2023-03-01T00:36:42;19.20;;;7.95;;
56242;SDS011;42155;53.096;23.226;2023-03-01T00:38:43;16.38;;;6.80;;
56242;SDS011;42155;53.096;23.226;2023-03-01T00:40:45;15.82;;;7.57;;
56242;SDS011;42155;53.096;23.226;2023-03-01T00:42:45;19.42;;;7.53;;
56242;SDS011;42155;53.096;23.226;2023-03-01T00:44:45;12.20;;;6.45;;
56242;SDS011;42155;53.096;23.226;2023-03-01T00:46:46;17.98;;;7.28;;
56242;SDS011;42155;53.096;23.226;2023-03-01T00:48:46;16.52;;;7.43;;
56242;SDS011;42155;53.096;23.226;2023-03-01T00:50:47;19.67;;;8.27;;
56242;SDS011;42155;53.096;23.226;2023-03-01T00:52:51;15.35;;;7.82;;
56242;SDS011;42155;53.096;23.226;2023-03-01T00:54:52;17.13;;;7.45;;
56242;SDS011;42155;53.096;23.226;2023-03-01T00:56:53;22.48;;;8.65;;
56242;SDS011;42155;53.096;23.226;2023-03-01T00:58:53;21.95;;;9.73;;
56242;SDS011;42155;53.096;23.226;2023-03-01T01:00:54;18.52;;;8.52;;
56242;SDS011;42155;53.096;23.226;2023-03-01T01:02:54;15.02;;;7.50;;
56242;SDS011;42155;53.096;23.226;2023-03-01T01:04:54;17.48;;;8.50;;
56242;SDS011;42155;53.096;23.226;2023-03-01T01:06:54;18.73;;;8.77;;
56242;SDS011;42155;53.096;23.226;2023-03-01T01:08:55;19.63;;;8.25;;
56242;SDS011;42155;53.096;23.226;2023-03-01T01:10:56;17.75;;;8.75;;
56242;SDS011;42155;53.096;23.226;2023-03-01T01:12:56;16.73;;;8.18;;
56242;SDS011;42155;53.096;23.226;2023-03-01T01:14:56;19.38;;;7.93;;
56242;SDS011;42155;53.096;23.226;2023-03-01T01:16:57;14.35;;;7.55;;
56242;SDS011;42155;53.096;23.226;2023-03-01T01:18:57;18.48;;;8.15;;
56242;SDS011;42155;53.096;23.226;2023-03-01T01:21:02;19.27;;;8.88;;
56242;SDS011;42155;53.096;23.226;2023-03-01T01:23:04;18.92;;;7.57;;
56242;SDS011;42155;53.096;23.226;2023-03-01T01:25:06;22.27;;;8.80;;
56242;SDS011;42155;53.096;23.226;2023-03-01T01:27:06;18.40;;;7.53;;
56242;SDS011;42155;53.096;23.226;2023-03-01T01:29:07;15.68;;;8.02;;
56242;SDS011;42155;53.096;23.226;2023-03-01T01:31:07;24.40;;;8.98;;
56242;SDS011;42155;53.096;23.226;2023-03-01T01:33:08;20.05;;;8.55;;
56242;SDS011;42155;53.096;23.226;2023-03-01T01:35:08;15.60;;;8.00;;
56242;SDS011;42155;53.096;23.226;2023-03-01T01:37:09;17.23;;;8.20;;
56242;SDS011;42155;53.096;23.226;2023-03-01T01:39:09;18.67;;;7.53;;
56242;SDS011;42155;53.096;23.226;2023-03-01T01:41:10;19.90;;;7.85;;
56242;SDS011;42155;53.096;23.226;2023-03-01T01:43:19;17.73;;;7.82;;
56242;SDS011;42155;53.096;23.226;2023-03-01T01:47:33;17.88;;;8.20;;
56242;SDS011;42155;53.096;23.226;2023-03-01T01:49:35;18.30;;;8.10;;
56242;SDS011;42155;53.096;23.226;2023-03-01T01:51:48;15.48;;;8.00;;
56242;SDS011;42155;53.096;23.226;2023-03-01T01:53:53;18.90;;;8.30;;
56242;SDS011;42155;53.096;23.226;2023-03-01T01:55:58;15.40;;;7.63;;
56242;SDS011;42155;53.096;23.226;2023-03-01T01:58:02;17.30;;;8.02;;
56242;SDS011;42155;53.096;23.226;2023-03-01T02:00:08;17.58;;;7.75;;
56242;SDS011;42155;53.096;23.226;2023-03-01T02:02:11;17.88;;;7.60;;
56242;SDS011;42155;53.096;23.226;2023-03-01T02:04:13;16.85;;;8.02;;
56242;SDS011;42155;53.096;23.226;2023-03-01T02:08:20;18.92;;;7.55;;
56242;SDS011;42155;53.096;23.226;2023-03-01T02:10:21;14.70;;;7.72;;
56242;SDS011;42155;53.096;23.226;2023-03-01T02:12:23;14.90;;;7.05;;
56242;SDS011;42155;53.096;23.226;2023-03-01T02:14:25;17.85;;;8.45;;
56242;SDS011;42155;53.096;23.226;2023-03-01T02:16:25;15.77;;;8.25;;
56242;SDS011;42155;53.096;23.226;2023-03-01T02:18:26;17.67;;;8.20;;
56242;SDS011;42155;53.096;23.226;2023-03-01T02:22:35;20.45;;;8.10;;
56242;SDS011;42155;53.096;23.226;2023-03-01T02:27:05;19.23;;;8.32;;
56242;SDS011;42155;53.096;23.226;2023-03-01T02:29:06;17.30;;;8.48;;
56242;SDS011;42155;53.096;23.226;2023-03-01T02:31:07;15.07;;;7.45;;
56242;SDS011;42155;53.096;23.226;2023-03-01T02:33:09;15.27;;;7.50;;
56242;SDS011;42155;53.096;23.226;2023-03-01T02:35:11;18.13;;;8.85;;
56242;SDS011;42155;53.096;23.226;2023-03-01T02:37:15;17.52;;;8.02;;
56242;SDS011;42155;53.096;23.226;2023-03-01T02:39:18;18.08;;;8.38;;
56242;SDS011;42155;53.096;23.226;2023-03-01T02:41:23;19.75;;;8.23;;
56242;SDS011;42155;53.096;23.226;2023-03-01T02:43:27;17.23;;;8.38;;
56242;SDS011;42155;53.096;23.226;2023-03-01T02:45:32;16.33;;;7.90;;
56242;SDS011;42155;53.096;23.226;2023-03-01T02:47:32;16.98;;;7.35;;
56242;SDS011;42155;53.096;23.226;2023-03-01T02:49:34;19.45;;;8.00;;
56242;SDS011;42155;53.096;23.226;2023-03-01T02:53:48;20.67;;;8.10;;
56242;SDS011;42155;53.096;23.226;2023-03-01T02:56:11;16.92;;;7.68;;
56242;SDS011;42155;53.096;23.226;2023-03-01T02:58:13;23.38;;;8.93;;
56242;SDS011;42155;53.096;23.226;2023-03-01T03:00:24;20.58;;;8.30;;
56242;SDS011;42155;53.096;23.226;2023-03-01T03:02:29;17.50;;;7.97;;
56242;SDS011;42155;53.096;23.226;2023-03-01T03:04:30;19.08;;;8.32;;
56242;SDS011;42155;53.096;23.226;2023-03-01T03:06:30;19.15;;;7.95;;
56242;SDS011;42155;53.096;23.226;2023-03-01T03:08:31;17.60;;;8.05;;
56242;SDS011;42155;53.096;23.226;2023-03-01T03:10:33;16.08;;;7.90;;
56242;SDS011;42155;53.096;23.226;2023-03-01T03:12:36;18.85;;;8.07;;
56242;SDS011;42155;53.096;23.226;2023-03-01T03:14:37;20.17;;;8.20;;
56242;SDS011;42155;53.096;23.226;2023-03-01T03:16:47;19.52;;;8.65;;
56242;SDS011;42155;53.096;23.226;2023-03-01T03:18:49;19.65;;;8.45;;
56242;SDS011;42155;53.096;23.226;2023-03-01T03:20:49;17.08;;;7.05;;
56242;SDS011;42155;53.096;23.226;2023-03-01T03:22:50;16.63;;;7.75;;
56242;SDS011;42155;53.096;23.226;2023-03-01T03:24:52;16.10;;;7.50;;
56242;SDS011;42155;53.096;23.226;2023-03-01T03:26:53;19.90;;;8.60;;
56242;SDS011;42155;53.096;23.226;2023-03-01T03:28:53;23.48;;;8.60;;
56242;SDS011;42155;53.096;23.226;2023-03-01T03:30:53;18.05;;;7.57;;
56242;SDS011;42155;53.096;23.226;2023-03-01T03:32:53;15.20;;;7.30;;
56242;SDS011;42155;53.096;23.226;2023-03-01T03:34:55;18.25;;;7.30;;
56242;SDS011;42155;53.096;23.226;2023-03-01T03:36:55;16.80;;;7.95;;
56242;SDS011;42155;53.096;23.226;2023-03-01T03:38:56;18.02;;;7.75;;
56242;SDS011;42155;53.096;23.226;2023-03-01T03:41:04;18.23;;;8.48;;
56242;SDS011;42155;53.096;23.226;2023-03-01T03:43:07;16.42;;;7.85;;
56242;SDS011;42155;53.096;23.226;2023-03-01T03:45:10;21.88;;;7.95;;
56242;SDS011;42155;53.096;23.226;2023-03-01T03:47:10;16.48;;;7.25;;
56242;SDS011;42155;53.096;23.226;2023-03-01T03:49:10;16.80;;;7.25;;
56242;SDS011;42155;53.096;23.226;2023-03-01T03:51:12;19.00;;;7.55;;
56242;SDS011;42155;53.096;23.226;2023-03-01T03:53:13;19.27;;;8.20;;
56242;SDS011;42155;53.096;23.226;2023-03-01T03:55:14;15.52;;;7.50;;
56242;SDS011;42155;53.096;23.226;2023-03-01T03:57:14;14.27;;;6.93;;
56242;SDS011;42155;53.096;23.226;2023-03-01T03:59:14;18.33;;;8.25;;
56242;SDS011;42155;53.096;23.226;2023-03-01T04:01:15;19.30;;;7.65;;
56242;SDS011;42155;53.096;23.226;2023-03-01T04:03:16;16.90;;;8.32;;
56242;SDS011;42155;53.096;23.226;2023-03-01T04:05:18;17.92;;;8.07;;
56242;SDS011;42155;53.096;23.226;2023-03-01T04:07:19;18.00;;;7.93;;
56242;SDS011;42155;53.096;23.226;2023-03-01T04:09:19;19.30;;;8.15;;
56242;SDS011;42155;53.096;23.226;2023-03-01T04:11:19;17.15;;;7.70;;
56242;SDS011;42155;53.096;23.226;2023-03-01T04:13:21;19.88;;;8.10;;
56242;SDS011;42155;53.096;23.226;2023-03-01T04:15:22;20.13;;;8.23;;
56242;SDS011;42155;53.096;23.226;2023-03-01T04:17:24;16.55;;;8.40;;
56242;SDS011;42155;53.096;23.226;2023-03-01T04:19:24;16.25;;;8.05;;
56242;SDS011;42155;53.096;23.226;2023-03-01T04:21:25;17.63;;;8.68;;
56242;SDS011;42155;53.096;23.226;2023-03-01T04:23:25;17.35;;;9.25;;
56242;SDS011;42155;53.096;23.226;2023-03-01T04:25:26;23.20;;;9.48;;
56242;SDS011;42155;53.096;23.226;2023-03-01T04:27:26;18.50;;;8.98;;
56242;SDS011;42155;53.096;23.226;2023-03-01T04:29:26;18.23;;;8.98;;
56242;SDS011;42155;53.096;23.226;2023-03-01T04:31:27;17.83;;;8.60;;
56242;SDS011;42155;53.096;23.226;2023-03-01T04:33:27;15.63;;;8.25;;
56242;SDS011;42155;53.096;23.226;2023-03-01T04:35:27;23.05;;;8.63;;
56242;SDS011;42155;53.096;23.226;2023-03-01T04:37:28;23.48;;;8.98;;
56242;SDS011;42155;53.096;23.226;2023-03-01T04:39:28;19.30;;;8.27;;
56242;SDS011;42155;53.096;23.226;2023-03-01T04:41:28;17.50;;;8.68;;
56242;SDS011;42155;53.096;23.226;2023-03-01T04:43:29;17.67;;;8.45;;
56242;SDS011;42155;53.096;23.226;2023-03-01T04:45:29;20.02;;;8.85;;
56242;SDS011;42155;53.096;23.226;2023-03-01T04:47:32;20.83;;;9.02;;
56242;SDS011;42155;53.096;23.226;2023-03-01T04:49:32;23.30;;;10.15;;
56242;SDS011;42155;53.096;23.226;2023-03-01T04:51:33;18.90;;;9.50;;
56242;SDS011;42155;53.096;23.226;2023-03-01T04:53:34;17.50;;;8.45;;
56242;SDS011;42155;53.096;23.226;2023-03-01T04:55:35;24.00;;;10.73;;
56242;SDS011;42155;53.096;23.226;2023-03-01T04:57:35;21.20;;;9.15;;
56242;SDS011;42155;53.096;23.226;2023-03-01T04:59:36;19.35;;;9.55;;
56242;SDS011;42155;53.096;23.226;2023-03-01T05:01:36;22.25;;;9.88;;
56242;SDS011;42155;53.096;23.226;2023-03-01T05:03:36;18.20;;;8.30;;
56242;SDS011;42155;53.096;23.226;2023-03-01T05:05:37;17.67;;;9.25;;
56242;SDS011;42155;53.096;23.226;2023-03-01T05:07:38;21.30;;;9.93;;
56242;SDS011;42155;53.096;23.226;2023-03-01T05:09:39;22.77;;;9.23;;
56242;SDS011;42155;53.096;23.226;2023-03-01T05:11:39;20.10;;;9.68;;
56242;SDS011;42155;53.096;23.226;2023-03-01T05:13:40;20.35;;;9.60;;
56242;SDS011;42155;53.096;23.226;2023-03-01T05:15:40;20.48;;;9.27;;
56242;SDS011;42155;53.096;23.226;2023-03-01T05:17:41;20.38;;;9.05;;
56242;SDS011;42155;53.096;23.226;2023-03-01T05:19:41;22.13;;;9.13;;
56242;SDS011;42155;53.096;23.226;2023-03-01T05:21:42;17.83;;;8.77;;
56242;SDS011;42155;53.096;23.226;2023-03-01T05:23:42;21.08;;;9.32;;
56242;SDS011;42155;53.096;23.226;2023-03-01T05:25:43;25.42;;;9.77;;
56242;SDS011;42155;53.096;23.226;2023-03-01T05:27:44;23.10;;;9.68;;
56242;SDS011;42155;53.096;23.226;2023-03-01T05:29:44;23.08;;;10.45;;
56242;SDS011;42155;53.096;23.226;2023-03-01T05:31:45;18.48;;;9.07;;
56242;SDS011;42155;53.096;23.226;2023-03-01T05:33:45;21.30;;;9.45;;
56242;SDS011;42155;53.096;23.226;2023-03-01T05:35:45;23.88;;;11.02;;
56242;SDS011;42155;53.096;23.226;2023-03-01T05:37:46;23.45;;;10.50;;
56242;SDS011;42155;53.096;23.226;2023-03-01T05:39:48;21.45;;;10.23;;
56242;SDS011;42155;53.096;23.226;2023-03-01T05:41:51;21.52;;;11.20;;
56242;SDS011;42155;53.096;23.226;2023-03-01T05:43:56;21.40;;;10.85;;
56242;SDS011;42155;53.096;23.226;2023-03-01T05:45:57;22.15;;;10.38;;
56242;SDS011;42155;53.096;23.226;2023-03-01T05:47:58;22.90;;;10.40;;
56242;SDS011;42155;53.096;23.226;2023-03-01T05:49:58;23.73;;;11.00;;
56242;SDS011;42155;53.096;23.226;2023-03-01T05:51:59;24.45;;;11.52;;
56242;SDS011;42155;53.096;23.226;2023-03-01T05:53:59;26.98;;;11.80;;
56242;SDS011;42155;53.096;23.226;2023-03-01T05:56:02;28.80;;;11.43;;
56242;SDS011;42155;53.096;23.226;2023-03-01T05:58:04;26.27;;;11.95;;
56242;SDS011;42155;53.096;23.226;2023-03-01T06:00:07;30.10;;;12.70;;
56242;SDS011;42155;53.096;23.226;2023-03-01T06:02:08;28.05;;;11.98;;
56242;SDS011;42155;53.096;23.226;2023-03-01T06:04:09;24.38;;;10.75;;
56242;SDS011;42155;53.096;23.226;2023-03-01T06:06:09;26.15;;;11.00;;
56242;SDS011;42155;53.096;23.226;2023-03-01T06:08:10;22.85;;;10.98;;
56242;SDS011;42155;53.096;23.226;2023-03-01T06:10:11;23.10;;;10.68;;
56242;SDS011;42155;53.096;23.226;2023-03-01T06:12:12;24.00;;;10.48;;
56242;SDS011;42155;53.096;23.226;2023-03-01T06:14:12;26.88;;;10.88;;
56242;SDS011;42155;53.096;23.226;2023-03-01T06:16:13;21.90;;;10.05;;
56242;SDS011;42155;53.096;23.226;2023-03-01T06:18:14;21.13;;;9.60;;
56242;SDS011;42155;53.096;23.226;2023-03-01T06:20:16;19.70;;;9.95;;
56242;SDS011;42155;53.096;23.226;2023-03-01T06:22:18;27.08;;;11.35;;
56242;SDS011;42155;53.096;23.226;2023-03-01T06:24:18;25.63;;;11.27;;
56242;SDS011;42155;53.096;23.226;2023-03-01T06:26:19;23.60;;;11.02;;
56242;SDS011;42155;53.096;23.226;2023-03-01T06:28:19;27.60;;;11.50;;
56242;SDS011;42155;53.096;23.226;2023-03-01T06:30:20;34.55;;;12.98;;
56242;SDS011;42155;53.096;23.226;2023-03-01T06:32:22;23.85;;;11.40;;
56242;SDS011;42155;53.096;23.226;2023-03-01T06:34:22;24.42;;;10.80;;
56242;SDS011;42155;53.096;23.226;2023-03-01T06:36:23;25.63;;;10.40;;
56242;SDS011;42155;53.096;23.226;2023-03-01T06:38:23;25.60;;;10.52;;
56242;SDS011;42155;53.096;23.226;2023-03-01T06:40:24;28.20;;;10.65;;
56242;SDS011;42155;53.096;23.226;2023-03-01T06:42:24;26.10;;;11.30;;
56242;SDS011;42155;53.096;23.226;2023-03-01T06:44:25;21.95;;;10.43;;
56242;SDS011;42155;53.096;23.226;2023-03-01T06:46:25;21.23;;;10.23;;
56242;SDS011;42155;53.096;23.226;2023-03-01T06:48:26;23.65;;;10.77;;
56242;SDS011;42155;53.096;23.226;2023-03-01T06:50:26;23.85;;;11.15;;
56242;SDS011;42155;53.096;23.226;2023-03-01T06:52:27;23.33;;;10.55;;
56242;SDS011;42155;53.096;23.226;2023-03-01T06:54:28;21.08;;;9.30;;
56242;SDS011;42155;53.096;23.226;2023-03-01T06:56:28;23.33;;;10.13;;
56242;SDS011;42155;53.096;23.226;2023-03-01T06:58:28;21.52;;;9.73;;
56242;SDS011;42155;53.096;23.226;2023-03-01T07:00:29;18.35;;;10.30;;
56242;SDS011;42155;53.096;23.226;2023-03-01T07:02:29;23.95;;;11.20;;
56242;SDS011;42155;53.096;23.226;2023-03-01T07:04:30;28.10;;;11.55;;
56242;SDS011;42155;53.096;23.226;2023-03-01T07:06:30;23.77;;;10.35;;
56242;SDS011;42155;53.096;23.226;2023-03-01T07:08:31;24.83;;;10.52;;
56242;SDS011;42155;53.096;23.226;2023-03-01T07:10:31;25.73;;;11.55;;
56242;SDS011;42155;53.096;23.226;2023-03-01T07:12:32;23.98;;;10.48;;
56242;SDS011;42155;53.096;23.226;2023-03-01T07:14:33;26.92;;;11.85;;
56242;SDS011;42155;53.096;23.226;2023-03-01T07:16:33;30.85;;;12.90;;
56242;SDS011;42155;53.096;23.226;2023-03-01T07:18:34;33.75;;;13.77;;
56242;SDS011;42155;53.096;23.226;2023-03-01T07:20:34;29.50;;;13.50;;
56242;SDS011;42155;53.096;23.226;2023-03-01T07:22:34;39.67;;;14.98;;
56242;SDS011;42155;53.096;23.226;2023-03-01T07:24:35;32.28;;;14.00;;
56242;SDS011;42155;53.096;23.226;2023-03-01T07:26:35;28.30;;;13.43;;
56242;SDS011;42155;53.096;23.226;2023-03-01T07:28:36;23.25;;;11.27;;
56242;SDS011;42155;53.096;23.226;2023-03-01T07:30:36;25.00;;;11.93;;
56242;SDS011;42155;53.096;23.226;2023-03-01T07:32:37;27.10;;;11.65;;
56242;SDS011;42155;53.096;23.226;2023-03-01T07:34:37;27.73;;;12.60;;
56242;SDS011;42155;53.096;23.226;2023-03-01T07:36:37;29.63;;;14.07;;
56242;SDS011;42155;53.096;23.226;2023-03-01T07:38:38;29.02;;;13.48;;
56242;SDS011;42155;53.096;23.226;2023-03-01T07:40:38;33.35;;;14.65;;
56242;SDS011;42155;53.096;23.226;2023-03-01T07:42:38;33.45;;;14.60;;
56242;SDS011;42155;53.096;23.226;2023-03-01T07:44:39;27.67;;;13.35;;
56242;SDS011;42155;53.096;23.226;2023-03-01T07:46:39;25.83;;;12.90;;
56242;SDS011;42155;53.096;23.226;2023-03-01T07:48:39;29.00;;;13.38;;
56242;SDS011;42155;53.096;23.226;2023-03-01T07:50:40;24.77;;;11.73;;
56242;SDS011;42155;53.096;23.226;2023-03-01T07:52:40;24.35;;;11.35;;
56242;SDS011;42155;53.096;23.226;2023-03-01T07:54:42;26.10;;;12.15;;
56242;SDS011;42155;53.096;23.226;2023-03-01T07:56:43;25.10;;;11.60;;
56242;SDS011;42155;53.096;23.226;2023-03-01T07:58:44;27.58;;;13.18;;
56242;SDS011;42155;53.096;23.226;2023-03-01T08:00:44;30.05;;;14.10;;
56242;SDS011;42155;53.096;23.226;2023-03-01T08:02:45;33.65;;;13.35;;
56242;SDS011;42155;53.096;23.226;2023-03-01T08:04:45;31.42;;;14.57;;
56242;SDS011;42155;53.096;23.226;2023-03-01T08:06:46;28.65;;;13.43;;
56242;SDS011;42155;53.096;23.226;2023-03-01T08:08:46;24.08;;;12.43;;
56242;SDS011;42155;53.096;23.226;2023-03-01T08:10:47;24.75;;;12.15;;
56242;SDS011;42155;53.096;23.226;2023-03-01T08:12:47;28.40;;;12.77;;
56242;SDS011;42155;53.096;23.226;2023-03-01T08:14:47;25.67;;;12.90;;
56242;SDS011;42155;53.096;23.226;2023-03-01T08:16:50;27.88;;;13.25;;
56242;SDS011;42155;53.096;23.226;2023-03-01T08:18:51;28.63;;;13.23;;
56242;SDS011;42155;53.096;23.226;2023-03-01T08:20:51;27.73;;;12.95;;
56242;SDS011;42155;53.096;23.226;2023-03-01T08:22:51;26.42;;;12.25;;
56242;SDS011;42155;53.096;23.226;2023-03-01T08:24:52;26.40;;;12.77;;
56242;SDS011;42155;53.096;23.226;2023-03-01T08:26:52;30.15;;;13.48;;
56242;SDS011;42155;53.096;23.226;2023-03-01T08:28:53;29.95;;;12.45;;
56242;SDS011;42155;53.096;23.226;2023-03-01T08:30:53;25.90;;;13.18;;
56242;SDS011;42155;53.096;23.226;2023-03-01T08:32:54;32.45;;;14.27;;
56242;SDS011;42155;53.096;23.226;2023-03-01T08:34:54;35.28;;;13.77;;
56242;SDS011;42155;53.096;23.226;2023-03-01T08:36:54;28.13;;;13.68;;
56242;SDS011;42155;53.096;23.226;2023-03-01T08:38:55;28.75;;;13.10;;
56242;SDS011;42155;53.096;23.226;2023-03-01T08:40:58;29.48;;;13.45;;
56242;SDS011;42155;53.096;23.226;2023-03-01T08:42:59;29.02;;;13.73;;
56242;SDS011;42155;53.096;23.226;2023-03-01T08:45:00;28.65;;;14.82;;
56242;SDS011;42155;53.096;23.226;2023-03-01T08:47:00;31.83;;;14.63;;
56242;SDS011;42155;53.096;23.226;2023-03-01T08:49:10;33.25;;;14.70;;
56242;SDS011;42155;53.096;23.226;2023-03-01T08:51:15;28.98;;;13.02;;
56242;SDS011;42155;53.096;23.226;2023-03-01T08:53:17;28.38;;;13.15;;
56242;SDS011;42155;53.096;23.226;2023-03-01T08:55:17;30.02;;;14.25;;
56242;SDS011;42155;53.096;23.226;2023-03-01T08:57:18;28.20;;;13.32;;
56242;SDS011;42155;53.096;23.226;2023-03-01T08:59:18;28.80;;;12.35;;
56242;SDS011;42155;53.096;23.226;2023-03-01T09:01:18;26.98;;;13.70;;
56242;SDS011;42155;53.096;23.226;2023-03-01T09:03:19;28.95;;;12.80;;
56242;SDS011;42155;53.096;23.226;2023-03-01T09:05:19;30.67;;;12.13;;
56242;SDS011;42155;53.096;23.226;2023-03-01T09:07:20;24.35;;;12.13;;
56242;SDS011;42155;53.096;23.226;2023-03-01T09:09:20;27.60;;;12.43;;
56242;SDS011;42155;53.096;23.226;2023-03-01T09:11:21;25.38;;;12.15;;
56242;SDS011;42155;53.096;23.226;2023-03-01T09:13:21;25.63;;;11.95;;
56242;SDS011;42155;53.096;23.226;2023-03-01T09:15:23;31.00;;;11.95;;
56242;SDS011;42155;53.096;23.226;2023-03-01T09:17:23;24.20;;;11.55;;
56242;SDS011;42155;53.096;23.226;2023-03-01T09:19:24;23.92;;;11.48;;
56242;SDS011;42155;53.096;23.226;2023-03-01T09:21:24;27.02;;;12.15;;
56242;SDS011;42155;53.096;23.226;2023-03-01T09:23:24;24.95;;;11.00;;
56242;SDS011;42155;53.096;23.226;2023-03-01T09:25:25;26.73;;;11.57;;
56242;SDS011;42155;53.096;23.226;2023-03-01T09:27:25;26.88;;;12.73;;
56242;SDS011;42155;53.096;23.226;2023-03-01T09:29:26;26.90;;;13.20;;
56242;SDS011;42155;53.096;23.226;2023-03-01T09:31:26;22.70;;;10.75;;
56242;SDS011;42155;53.096;23.226;2023-03-01T09:33:27;24.23;;;11.98;;
56242;SDS011;42155;53.096;23.226;2023-03-01T09:35:28;22.48;;;11.25;;
56242;SDS011;42155;53.096;23.226;2023-03-01T09:37:29;20.23;;;9.73;;
56242;SDS011;42155;53.096;23.226;2023-03-01T09:39:29;24.20;;;10.55;;
56242;SDS011;42155;53.096;23.226;2023-03-01T09:43:45;22.50;;;11.23;;
56242;SDS011;42155;53.096;23.226;2023-03-01T09:45:49;22.52;;;10.93;;
56242;SDS011;42155;53.096;23.226;2023-03-01T09:47:53;20.77;;;10.07;;
56242;SDS011;42155;53.096;23.226;2023-03-01T09:50:01;26.65;;;11.23;;
56242;SDS011;42155;53.096;23.226;2023-03-01T09:52:23;24.77;;;10.65;;
56242;SDS011;42155;53.096;23.226;2023-03-01T09:54:33;25.48;;;11.18;;
56242;SDS011;42155;53.096;23.226;2023-03-01T09:56:37;20.75;;;11.15;;
56242;SDS011;42155;53.096;23.226;2023-03-01T10:00:47;26.52;;;12.60;;
56242;SDS011;42155;53.096;23.226;2023-03-01T10:05:03;26.63;;;11.70;;
56242;SDS011;42155;53.096;23.226;2023-03-01T10:10:07;31.15;;;12.75;;
56242;SDS011;42155;53.096;23.226;2023-03-01T10:12:19;25.35;;;11.90;;
56242;SDS011;42155;53.096;23.226;2023-03-01T10:19:30;29.67;;;13.20;;
56242;SDS011;42155;53.096;23.226;2023-03-01T10:21:35;22.20;;;11.88;;
56242;SDS011;42155;53.096;23.226;2023-03-01T10:23:42;25.48;;;11.68;;
56242;SDS011;42155;53.096;23.226;2023-03-01T10:27:53;23.15;;;12.02;;
56242;SDS011;42155;53.096;23.226;2023-03-01T10:32:29;25.15;;;12.40;;
56242;SDS011;42155;53.096;23.226;2023-03-01T10:34:30;25.67;;;12.35;;
56242;SDS011;42155;53.096;23.226;2023-03-01T10:36:33;25.88;;;11.98;;
56242;SDS011;42155;53.096;23.226;2023-03-01T10:38:55;24.30;;;12.20;;
56242;SDS011;42155;53.096;23.226;2023-03-01T10:40:56;22.70;;;11.00;;
56242;SDS011;42155;53.096;23.226;2023-03-01T10:43:05;23.73;;;11.90;;
56242;SDS011;42155;53.096;23.226;2023-03-01T10:47:30;23.65;;;11.00;;
56242;SDS011;42155;53.096;23.226;2023-03-01T10:49:31;25.38;;;12.20;;
56242;SDS011;42155;53.096;23.226;2023-03-01T10:51:31;24.00;;;11.10;;
56242;SDS011;42155;53.096;23.226;2023-03-01T10:55:35;20.25;;;10.10;;
56242;SDS011;42155;53.096;23.226;2023-03-01T10:57:38;25.33;;;12.23;;
56242;SDS011;42155;53.096;23.226;2023-03-01T10:59:39;27.77;;;11.40;;
56242;SDS011;42155;53.096;23.226;2023-03-01T11:01:40;24.25;;;12.25;;
56242;SDS011;42155;53.096;23.226;2023-03-01T11:03:40;27.35;;;13.32;;
56242;SDS011;42155;53.096;23.226;2023-03-01T11:05:57;21.08;;;10.65;;
56242;SDS011;42155;53.096;23.226;2023-03-01T11:08:01;20.25;;;10.77;;
56242;SDS011;42155;53.096;23.226;2023-03-01T11:10:10;27.42;;;12.30;;
56242;SDS011;42155;53.096;23.226;2023-03-01T11:12:13;26.45;;;12.27;;
56242;SDS011;42155;53.096;23.226;2023-03-01T11:14:16;26.85;;;11.50;;
56242;SDS011;42155;53.096;23.226;2023-03-01T11:16:27;27.48;;;11.32;;
56242;SDS011;42155;53.096;23.226;2023-03-01T11:18:31;24.20;;;11.82;;
56242;SDS011;42155;53.096;23.226;2023-03-01T11:20:32;22.15;;;11.70;;
56242;SDS011;42155;53.096;23.226;2023-03-01T11:22:35;29.42;;;13.07;;
56242;SDS011;42155;53.096;23.226;2023-03-01T11:24:40;28.02;;;13.13;;
56242;SDS011;42155;53.096;23.226;2023-03-01T11:26:46;30.27;;;12.25;;
56242;SDS011;42155;53.096;23.226;2023-03-01T11:28:53;23.25;;;11.13;;
56242;SDS011;42155;53.096;23.226;2023-03-01T11:31:00;27.52;;;12.48;;
56242;SDS011;42155;53.096;23.226;2023-03-01T11:35:14;26.42;;;12.20;;
56242;SDS011;42155;53.096;23.226;2023-03-01T11:39:47;27.33;;;12.15;;
56242;SDS011;42155;53.096;23.226;2023-03-01T11:42:00;23.75;;;11.68;;
56242;SDS011;42155;53.096;23.226;2023-03-01T11:44:25;25.20;;;11.05;;
56242;SDS011;42155;53.096;23.226;2023-03-01T11:50:43;23.88;;;13.43;;
56242;SDS011;42155;53.096;23.226;2023-03-01T11:52:58;29.27;;;13.05;;
56242;SDS011;42155;53.096;23.226;2023-03-01T12:02:42;23.60;;;11.68;;
56242;SDS011;42155;53.096;23.226;2023-03-01T12:21:27;25.73;;;11.77;;
56242;SDS011;42155;53.096;23.226;2023-03-01T12:24:01;19.67;;;9.85;;
56242;SDS011;42155;53.096;23.226;2023-03-01T12:35:26;20.63;;;10.35;;
56242;SDS011;42155;53.096;23.226;2023-03-01T12:49:17;18.52;;;9.45;;
56242;SDS011;42155;53.096;23.226;2023-03-01T12:51:23;18.15;;;8.82;;
56242;SDS011;42155;53.096;23.226;2023-03-01T12:53:27;18.67;;;9.10;;
56242;SDS011;42155;53.096;23.226;2023-03-01T12:55:37;18.23;;;9.55;;
56242;SDS011;42155;53.096;23.226;2023-03-01T12:57:42;17.02;;;9.13;;
56242;SDS011;42155;53.096;23.226;2023-03-01T13:00:02;16.90;;;8.55;;
56242;SDS011;42155;53.096;23.226;2023-03-01T13:02:35;16.90;;;8.85;;
56242;SDS011;42155;53.096;23.226;2023-03-01T13:05:02;17.88;;;8.32;;
56242;SDS011;42155;53.096;23.226;2023-03-01T13:11:35;19.77;;;9.90;;
56242;SDS011;42155;53.096;23.226;2023-03-01T13:13:36;20.40;;;8.98;;
56242;SDS011;42155;53.096;23.226;2023-03-01T13:15:36;20.98;;;9.68;;
56242;SDS011;42155;53.096;23.226;2023-03-01T13:17:41;23.10;;;10.35;;
56242;SDS011;42155;53.096;23.226;2023-03-01T13:19:55;23.23;;;11.25;;
56242;SDS011;42155;53.096;23.226;2023-03-01T13:21:56;22.23;;;11.20;;
56242;SDS011;42155;53.096;23.226;2023-03-01T13:23:57;19.85;;;10.10;;